createdAt,value
2019-02-06T00:00:36.828Z,27.47
2019-02-06T00:03:04.901Z,28.80
2019-02-06T00:05:31.962Z,25.53
2019-02-06T00:07:59.018Z,27.40
2019-02-06T00:10:26.117Z,25.00
2019-02-06T00:12:53.182Z,25.23
2019-02-06T00:15:20.436Z,24.70
2019-02-06T00:17:48.028Z,21.63
2019-02-06T00:20:15.061Z,22.00
2019-02-06T00:22:42.124Z,23.70
2019-02-06T00:25:09.200Z,19.87
2019-02-06T00:27:36.253Z,26.27
2019-02-06T00:30:04.894Z,25.80
2019-02-06T00:32:31.998Z,27.17
2019-02-06T00:34:59.064Z,26.53
2019-02-06T00:37:26.115Z,27.17
2019-02-06T00:39:53.214Z,27.83
2019-02-06T00:42:20.268Z,27.83
2019-02-06T00:44:47.325Z,26.17
2019-02-06T00:47:14.426Z,25.33
2019-02-06T00:49:41.485Z,27.20
2019-02-06T00:52:08.529Z,25.87
2019-02-06T00:54:35.651Z,27.10
2019-02-06T00:57:02.761Z,25.37
2019-02-06T00:59:30.100Z,26.00
2019-02-06T01:01:57.205Z,26.97
2019-02-06T01:04:24.359Z,27.70
2019-02-06T01:06:51.426Z,28.23
2019-02-06T01:09:18.655Z,25.10
2019-02-06T01:11:45.755Z,28.20
2019-02-06T01:14:12.876Z,26.70
2019-02-06T01:16:39.968Z,32.23
2019-02-06T01:19:07.234Z,27.57
2019-02-06T01:21:34.364Z,28.13
2019-02-06T01:24:02.055Z,30.93
2019-02-06T01:26:29.099Z,27.00
2019-02-06T01:28:56.148Z,30.80
2019-02-06T01:31:25.596Z,28.37
2019-02-06T01:33:52.671Z,27.10
2019-02-06T01:36:19.726Z,26.67
2019-02-06T01:38:46.794Z,28.17
2019-02-06T01:41:13.840Z,32.27
2019-02-06T01:43:40.896Z,33.77
2019-02-06T01:46:07.967Z,24.63
2019-02-06T01:48:35.004Z,30.17
2019-02-06T01:51:02.046Z,25.37
2019-02-06T01:53:29.118Z,29.37
2019-02-06T01:55:56.559Z,30.57
2019-02-06T01:58:23.612Z,23.13
2019-02-06T02:00:50.662Z,29.80
2019-02-06T02:03:17.742Z,27.83
2019-02-06T02:05:44.789Z,24.57
2019-02-06T02:08:11.851Z,25.97
2019-02-06T02:10:38.952Z,26.87
2019-02-06T02:13:06.056Z,30.30
2019-02-06T02:15:33.612Z,30.70
2019-02-06T02:18:00.713Z,26.70
2019-02-06T02:20:27.753Z,29.73
2019-02-06T02:22:55.737Z,25.97
2019-02-06T02:25:22.879Z,30.67
2019-02-06T02:27:51.259Z,31.50
2019-02-06T02:30:23.870Z,28.33
2019-02-06T02:32:51.280Z,26.23
2019-02-06T02:35:18.320Z,28.73
2019-02-06T02:37:45.362Z,29.13
2019-02-06T02:40:12.747Z,31.23
2019-02-06T02:42:39.787Z,25.13
2019-02-06T02:45:08.820Z,29.43
2019-02-06T02:47:35.895Z,28.87
2019-02-06T02:50:04.405Z,29.33
2019-02-06T02:52:32.374Z,32.47
2019-02-06T02:54:59.442Z,33.77
2019-02-06T02:57:26.511Z,28.73
2019-02-06T02:59:53.853Z,29.17
2019-02-06T03:02:40.516Z,31.03
2019-02-06T03:05:12.130Z,32.43
2019-02-06T03:07:39.237Z,35.23
2019-02-06T03:10:06.910Z,26.67
2019-02-06T03:12:34.017Z,26.53
2019-02-06T03:15:01.219Z,30.10
2019-02-06T03:17:28.293Z,27.80
2019-02-06T03:19:55.640Z,28.07
2019-02-06T03:22:22.672Z,27.90
2019-02-06T03:24:49.776Z,27.67
2019-02-06T03:27:16.846Z,30.17
2019-02-06T03:29:43.901Z,30.17
2019-02-06T03:32:11.064Z,26.40
2019-02-06T03:34:38.597Z,27.37
2019-02-06T03:37:06.233Z,31.03
2019-02-06T03:39:33.515Z,27.70
2019-02-06T03:42:00.583Z,30.90
2019-02-06T03:44:27.631Z,26.77
2019-02-06T03:46:54.750Z,26.50
2019-02-06T03:49:21.841Z,24.93
2019-02-06T03:51:48.880Z,30.33
2019-02-06T03:54:16.127Z,28.50
2019-02-06T03:56:43.176Z,22.50
2019-02-06T03:59:10.280Z,27.53
2019-02-06T04:01:37.315Z,31.57
2019-02-06T04:04:04.467Z,25.47
2019-02-06T04:06:31.550Z,26.20
2019-02-06T04:08:58.665Z,27.67
2019-02-06T04:11:25.820Z,27.83
2019-02-06T04:13:52.884Z,28.90
2019-02-06T04:16:28.990Z,22.93
2019-02-06T04:18:56.075Z,26.97
2019-02-06T04:21:23.146Z,28.90
2019-02-06T04:23:50.177Z,22.77
2019-02-06T04:26:17.250Z,30.50
2019-02-06T04:28:44.318Z,36.07
2019-02-06T04:31:11.404Z,24.67
2019-02-06T04:33:38.719Z,22.70
2019-02-06T04:36:06.070Z,23.83
2019-02-06T04:38:33.130Z,26.20
2019-02-06T04:41:00.203Z,24.90
2019-02-06T04:43:27.250Z,22.30
2019-02-06T04:45:54.297Z,23.97
2019-02-06T04:48:21.383Z,25.80
2019-02-06T04:50:50.436Z,23.83
2019-02-06T04:53:17.502Z,23.53
2019-02-06T04:56:02.879Z,26.40
2019-02-06T04:58:29.927Z,24.10
2019-02-06T05:00:56.979Z,29.20
2019-02-06T05:03:25.775Z,27.37
2019-02-06T05:05:53.029Z,22.23
2019-02-06T05:08:20.104Z,27.90
2019-02-06T05:10:47.321Z,19.47
2019-02-06T05:13:14.441Z,22.03
2019-02-06T05:15:41.727Z,23.80
2019-02-06T05:18:08.921Z,22.07
2019-02-06T05:20:38.882Z,25.03
2019-02-06T05:23:06.413Z,20.93
2019-02-06T05:25:33.472Z,19.93
2019-02-06T05:28:00.724Z,19.80
2019-02-06T05:30:33.900Z,20.67
2019-02-06T05:33:00.970Z,24.83
2019-02-06T05:35:28.125Z,21.13
2019-02-06T05:37:55.172Z,20.20
2019-02-06T05:40:22.555Z,22.20
2019-02-06T05:42:52.599Z,21.13
2019-02-06T05:45:18.592Z,20.30
2019-02-06T05:47:45.689Z,21.63
2019-02-06T05:50:13.201Z,24.73
2019-02-06T05:52:40.306Z,24.37
2019-02-06T05:55:07.386Z,18.63
2019-02-06T05:57:34.419Z,19.97
2019-02-06T06:00:01.911Z,21.23
2019-02-06T06:02:28.987Z,18.37
2019-02-06T06:04:56.044Z,17.83
2019-02-06T06:07:23.169Z,19.73
2019-02-06T06:09:50.240Z,28.20
2019-02-06T06:12:17.515Z,18.53
2019-02-06T06:14:44.600Z,21.50
2019-02-06T06:17:11.660Z,21.00
2019-02-06T06:19:39.033Z,21.87
2019-02-06T06:22:06.117Z,19.20
2019-02-06T06:24:33.198Z,19.17
2019-02-06T06:27:00.271Z,22.20
2019-02-06T06:29:27.411Z,20.30
2019-02-06T06:31:54.490Z,20.77
2019-02-06T06:34:21.561Z,23.23
2019-02-06T06:36:48.674Z,21.87
2019-02-06T06:39:15.939Z,17.50
2019-02-06T06:41:43.006Z,16.93
2019-02-06T06:44:10.107Z,25.17
2019-02-06T06:46:37.205Z,23.73
2019-02-06T06:49:04.326Z,18.13
2019-02-06T06:51:31.399Z,19.30
2019-02-06T06:53:58.479Z,21.17
2019-02-06T06:56:25.541Z,17.87
2019-02-06T06:58:52.827Z,27.40
2019-02-06T07:01:19.921Z,18.27
2019-02-06T07:03:46.993Z,19.93
2019-02-06T07:06:14.053Z,20.57
2019-02-06T07:08:41.181Z,20.30
2019-02-06T07:11:08.261Z,19.80
2019-02-06T07:13:35.355Z,21.27
2019-02-06T07:16:02.670Z,25.80
2019-02-06T07:18:29.772Z,21.33
2019-02-06T07:20:56.842Z,23.03
2019-02-06T07:23:23.930Z,20.83
2019-02-06T07:25:50.994Z,21.93
2019-02-06T07:28:18.061Z,22.03
2019-02-06T07:30:45.168Z,24.70
2019-02-06T07:33:12.250Z,19.47
2019-02-06T07:35:39.762Z,18.17
2019-02-06T07:38:06.860Z,21.93
2019-02-06T07:40:33.952Z,18.63
2019-02-06T07:43:01.046Z,20.30
2019-02-06T07:45:28.166Z,20.03
2019-02-06T07:47:55.210Z,17.83
2019-02-06T07:50:25.186Z,19.70
2019-02-06T07:52:52.564Z,21.90
2019-02-06T07:55:19.644Z,17.80
2019-02-06T07:57:46.736Z,21.50
2019-02-06T08:00:14.042Z,25.60
2019-02-06T08:02:41.118Z,18.13
2019-02-06T08:05:10.417Z,26.63
2019-02-06T08:07:37.543Z,22.63
2019-02-06T08:10:06.641Z,27.30
2019-02-06T08:12:33.989Z,20.00
2019-02-06T08:15:01.125Z,29.47
2019-02-06T08:17:28.274Z,20.17
2019-02-06T08:19:55.365Z,18.70
2019-02-06T08:22:22.704Z,18.00
2019-02-06T08:24:49.774Z,19.27
2019-02-06T08:27:16.841Z,21.67
2019-02-06T08:29:44.248Z,22.23
2019-02-06T08:32:11.315Z,19.47
2019-02-06T08:34:38.398Z,26.27
2019-02-06T08:37:05.510Z,18.67
2019-02-06T08:39:32.581Z,18.07
2019-02-06T08:41:59.645Z,20.73
2019-02-06T08:44:26.874Z,19.50
2019-02-06T08:46:53.942Z,16.87
2019-02-06T08:49:21.112Z,19.00
2019-02-06T08:51:48.225Z,18.60
2019-02-06T08:54:15.293Z,15.17
2019-02-06T08:56:42.559Z,23.43
2019-02-06T08:59:09.655Z,21.53
2019-02-06T09:01:36.735Z,22.37
2019-02-06T09:04:03.889Z,22.23
2019-02-06T09:06:30.985Z,19.10
2019-02-06T09:09:00.058Z,22.17
2019-02-06T09:11:26.973Z,14.63
2019-02-06T09:13:54.068Z,17.17
2019-02-06T09:16:21.210Z,20.43
2019-02-06T09:18:48.301Z,21.27
2019-02-06T09:21:15.383Z,19.97
2019-02-06T09:23:42.494Z,21.57
2019-02-06T09:26:09.879Z,21.33
2019-02-06T09:28:37.470Z,19.80
2019-02-06T09:31:04.628Z,18.67
2019-02-06T09:33:31.760Z,23.53
2019-02-06T09:35:58.808Z,18.87
2019-02-06T09:38:25.889Z,20.07
2019-02-06T09:40:52.951Z,17.83
2019-02-06T09:43:20.038Z,23.53
2019-02-06T09:45:47.449Z,20.87
2019-02-06T09:48:14.538Z,19.17
2019-02-06T09:50:41.589Z,16.13
2019-02-06T09:53:09.029Z,13.77
2019-02-06T09:55:36.174Z,19.37
2019-02-06T09:58:04.191Z,22.50
2019-02-06T10:00:33.048Z,16.47
2019-02-06T10:03:00.494Z,16.20
2019-02-06T10:05:27.573Z,23.20
2019-02-06T10:07:54.674Z,18.53
2019-02-06T10:10:22.665Z,17.77
2019-02-06T10:12:49.780Z,20.40
2019-02-06T10:15:19.482Z,21.97
2019-02-06T10:17:46.731Z,20.50
2019-02-06T10:20:15.041Z,18.97
2019-02-06T10:22:42.158Z,19.03
2019-02-06T10:25:09.431Z,16.90
2019-02-06T10:27:36.537Z,20.97
2019-02-06T10:30:06.163Z,19.63
2019-02-06T10:32:33.209Z,15.67
2019-02-06T10:35:00.405Z,15.40
2019-02-06T10:37:29.267Z,18.10
2019-02-06T10:39:58.572Z,16.40
2019-02-06T10:42:25.358Z,17.30
2019-02-06T10:44:52.462Z,16.77
2019-02-06T10:47:19.549Z,16.47
2019-02-06T10:49:46.613Z,16.23
2019-02-06T10:52:13.767Z,20.77
2019-02-06T10:54:40.860Z,17.00
2019-02-06T10:57:10.264Z,17.17
2019-02-06T10:59:37.268Z,16.50
2019-02-06T11:02:04.619Z,18.47
2019-02-06T11:04:31.860Z,15.83
2019-02-06T11:06:58.928Z,15.30
2019-02-06T11:09:25.987Z,15.13
2019-02-06T11:11:53.034Z,18.37
2019-02-06T11:14:20.208Z,18.10
2019-02-06T11:16:47.328Z,12.53
2019-02-06T11:19:14.375Z,16.03
2019-02-06T11:21:41.551Z,23.17
2019-02-06T11:24:08.652Z,17.07
2019-02-06T11:26:35.703Z,15.87
2019-02-06T11:29:02.890Z,14.10
2019-02-06T11:31:30.007Z,18.73
2019-02-06T11:33:57.280Z,25.77
2019-02-06T11:36:24.591Z,14.90
2019-02-06T11:38:51.677Z,16.73
2019-02-06T11:41:18.832Z,14.63
2019-02-06T11:43:45.888Z,17.57
2019-02-06T11:46:12.947Z,20.13
2019-02-06T11:48:40.084Z,18.20
2019-02-06T11:51:07.199Z,20.87
2019-02-06T11:53:34.287Z,14.37
2019-02-06T11:56:01.405Z,18.53
2019-02-06T11:58:28.488Z,18.50
2019-02-06T12:01:15.187Z,16.90
2019-02-06T12:03:42.257Z,15.53
2019-02-06T12:06:09.639Z,17.57
2019-02-06T12:08:42.798Z,17.27
2019-02-06T12:11:09.918Z,18.40
2019-02-06T12:13:37.008Z,18.20
2019-02-06T12:16:04.218Z,23.93
2019-02-06T12:18:31.363Z,18.53
2019-02-06T12:20:58.433Z,21.70
2019-02-06T12:23:32.300Z,20.07
2019-02-06T12:25:54.829Z,17.90
2019-02-06T12:28:22.006Z,18.10
2019-02-06T12:30:49.079Z,18.43
2019-02-06T12:33:16.183Z,20.13
2019-02-06T12:35:43.275Z,18.87
2019-02-06T12:38:10.481Z,18.43
2019-02-06T12:40:37.601Z,24.20
2019-02-06T12:43:05.632Z,20.50
2019-02-06T12:45:33.138Z,19.07
2019-02-06T12:48:00.245Z,21.07
2019-02-06T12:50:27.427Z,17.07
2019-02-06T12:52:57.292Z,18.97
2019-02-06T12:55:26.678Z,19.93
2019-02-06T12:57:53.763Z,17.03
2019-02-06T13:00:23.140Z,21.97
2019-02-06T13:02:50.560Z,19.17
2019-02-06T13:05:17.642Z,17.67
2019-02-06T13:07:44.758Z,18.70
2019-02-06T13:10:12.106Z,18.40
2019-02-06T13:12:39.371Z,18.00
2019-02-06T13:15:08.332Z,18.30
2019-02-06T13:17:35.466Z,14.60
2019-02-06T13:20:03.865Z,18.00
2019-02-06T13:22:30.946Z,18.20
2019-02-06T13:24:58.086Z,16.03
2019-02-06T13:27:25.177Z,16.23
2019-02-06T13:29:52.214Z,15.23
2019-02-06T13:32:19.415Z,18.00
2019-02-06T13:34:46.479Z,15.57
2019-02-06T13:37:13.559Z,20.20
2019-02-06T13:39:41.188Z,15.00
2019-02-06T13:42:08.288Z,16.03
2019-02-06T13:44:35.376Z,17.47
2019-02-06T13:47:02.514Z,17.07
2019-02-06T13:49:29.592Z,15.70
2019-02-06T13:51:56.649Z,15.57
2019-02-06T13:54:23.766Z,18.30
2019-02-06T13:56:50.835Z,14.83
2019-02-06T13:59:17.903Z,12.87
2019-02-06T14:01:45.056Z,14.00
2019-02-06T14:04:12.235Z,15.57
2019-02-06T14:06:39.283Z,14.33
2019-02-06T14:09:21.638Z,16.87
2019-02-06T14:11:39.660Z,13.47
2019-02-06T14:14:06.725Z,18.87
2019-02-06T14:16:33.819Z,16.23
2019-02-06T14:19:00.965Z,11.73
2019-02-06T14:21:28.106Z,13.40
2019-02-06T14:24:32.781Z,11.60
2019-02-06T14:27:54.781Z,12.70
2019-02-06T14:30:38.512Z,12.63
2019-02-06T14:33:28.864Z,13.63
2019-02-06T14:36:40.246Z,15.47
2019-02-06T14:39:20.091Z,15.77
2019-02-06T14:42:36.624Z,19.30
2019-02-06T14:45:43.053Z,13.80
2019-02-06T14:48:35.795Z,12.93
2019-02-06T14:51:25.386Z,17.87
2019-02-06T14:54:06.546Z,13.10
2019-02-06T14:57:24.558Z,13.87
2019-02-06T15:00:35.728Z,11.67
2019-02-06T15:03:47.588Z,11.30
2019-02-06T15:06:54.127Z,16.30
2019-02-06T15:09:45.434Z,12.83
2019-02-06T15:13:00.196Z,12.73
2019-02-06T15:15:52.787Z,14.30
2019-02-06T15:19:20.018Z,11.87
2019-02-06T15:22:22.129Z,10.87
2019-02-06T15:25:46.161Z,9.87
2019-02-06T15:28:59.533Z,12.10
2019-02-06T15:31:59.994Z,11.97
2019-02-06T15:35:12.143Z,8.83
2019-02-06T15:38:15.082Z,14.20
2019-02-06T15:41:31.154Z,18.67
2019-02-06T15:44:08.430Z,13.87
2019-02-06T15:47:14.459Z,13.13
2019-02-06T15:50:27.140Z,14.20
2019-02-06T15:53:22.823Z,13.60
2019-02-06T15:56:21.726Z,12.63
2019-02-06T15:59:29.082Z,14.77
2019-02-06T16:02:22.732Z,15.00
2019-02-06T16:05:40.281Z,15.23
2019-02-06T16:08:26.542Z,17.17
2019-02-06T16:11:23.851Z,14.77
2019-02-06T16:14:47.550Z,16.00
2019-02-06T16:18:16.647Z,13.00
2019-02-06T16:21:37.186Z,15.47
2019-02-06T16:24:36.645Z,14.87
2019-02-06T16:27:48.384Z,17.50
2019-02-06T16:30:42.442Z,18.90
2019-02-06T16:33:36.738Z,10.90
2019-02-06T16:36:42.798Z,11.73
2019-02-06T16:40:12.518Z,12.80
2019-02-06T16:43:06.528Z,11.13
2019-02-06T16:45:58.693Z,9.53
2019-02-06T16:49:06.965Z,8.67
2019-02-06T16:51:39.342Z,14.13
2019-02-06T16:54:29.333Z,13.20
2019-02-06T16:57:28.452Z,8.37
2019-02-06T17:00:25.532Z,8.80
2019-02-06T17:03:27.796Z,17.00
2019-02-06T17:06:26.826Z,6.37
2019-02-06T17:09:41.528Z,6.77
2019-02-06T17:12:28.712Z,16.10
2019-02-06T17:15:55.624Z,9.00
2019-02-06T17:19:05.061Z,6.00
2019-02-06T17:21:56.145Z,9.13
2019-02-06T17:24:49.693Z,7.40
2019-02-06T17:27:56.795Z,5.63
2019-02-06T17:30:33.666Z,3.93
2019-02-06T17:33:42.170Z,3.77
2019-02-06T17:36:40.972Z,4.90
2019-02-06T17:40:01.979Z,5.13
2019-02-06T17:43:32.003Z,7.03
2019-02-06T17:46:35.338Z,7.50
2019-02-06T17:49:20.711Z,4.70
2019-02-06T17:52:27.727Z,4.00
2019-02-06T17:55:16.541Z,5.97
2019-02-06T17:57:44.348Z,4.57
2019-02-06T18:00:18.072Z,6.30
2019-02-06T18:02:45.273Z,9.47
2019-02-06T18:05:12.499Z,5.90
2019-02-06T18:07:39.614Z,3.23
2019-02-06T18:10:10.798Z,8.13
2019-02-06T18:12:38.347Z,7.03
2019-02-06T18:15:05.586Z,4.73
2019-02-06T18:17:32.772Z,4.70
2019-02-06T18:19:59.884Z,4.10
2019-02-06T18:22:26.990Z,7.37
2019-02-06T18:24:54.173Z,5.23
2019-02-06T18:27:21.328Z,4.33
2019-02-06T18:29:48.404Z,6.23
2019-02-06T18:32:15.637Z,4.80
2019-02-06T18:34:42.719Z,4.60
2019-02-06T18:37:09.758Z,4.97
2019-02-06T18:39:36.868Z,6.23
2019-02-06T18:42:04.372Z,3.77
2019-02-06T18:44:32.974Z,5.43
2019-02-06T18:47:00.435Z,4.27
2019-02-06T18:49:27.557Z,4.53
2019-02-06T18:51:54.645Z,4.67
2019-02-06T18:54:22.078Z,4.73
2019-02-06T18:56:49.445Z,4.83
2019-02-06T18:59:16.639Z,5.20
2019-02-06T19:01:43.726Z,6.43
2019-02-06T19:04:15.662Z,3.37
2019-02-06T19:06:44.584Z,4.43
2019-02-06T19:09:15.533Z,9.83
2019-02-06T19:11:42.793Z,9.73
2019-02-06T19:14:09.976Z,8.13
2019-02-06T19:16:37.341Z,7.33
2019-02-06T19:19:05.510Z,4.03
2019-02-06T19:21:57.666Z,6.73
2019-02-06T19:24:24.812Z,7.70
2019-02-06T19:26:51.990Z,4.73
2019-02-06T19:29:19.089Z,6.20
2019-02-06T19:31:46.416Z,6.20
2019-02-06T19:34:13.759Z,7.07
2019-02-06T19:36:40.827Z,9.20
2019-02-06T19:39:08.534Z,7.37
2019-02-06T19:41:35.660Z,6.53
2019-02-06T19:44:03.023Z,7.50
2019-02-06T19:46:30.143Z,8.27
2019-02-06T19:48:57.243Z,8.80
2019-02-06T19:51:24.682Z,7.13
2019-02-06T19:53:51.808Z,8.47
2019-02-06T19:56:18.935Z,8.57
2019-02-06T19:58:46.061Z,12.17
2019-02-06T20:01:13.185Z,10.97
2019-02-06T20:03:40.298Z,9.03
2019-02-06T20:06:07.704Z,10.20
2019-02-06T20:08:34.925Z,11.57
2019-02-06T20:11:02.030Z,9.67
2019-02-06T20:13:29.477Z,10.37
2019-02-06T20:15:56.572Z,13.00
2019-02-06T20:18:23.676Z,10.30
2019-02-06T20:20:52.009Z,11.37
2019-02-06T20:23:19.105Z,9.47
2019-02-06T20:25:46.203Z,11.33
2019-02-06T20:28:13.331Z,11.37
2019-02-06T20:30:40.521Z,9.83
2019-02-06T20:33:07.610Z,9.03
2019-02-06T20:35:35.021Z,13.13
2019-02-06T20:38:02.136Z,16.80
2019-02-06T20:40:33.519Z,11.73
2019-02-06T20:43:00.586Z,15.33
2019-02-06T20:45:27.713Z,16.17
2019-02-06T20:47:54.822Z,11.83
2019-02-06T20:50:24.050Z,13.47
2019-02-06T20:52:51.186Z,10.33
2019-02-06T20:55:19.345Z,14.17
2019-02-06T20:57:46.634Z,16.43
2019-02-06T21:00:22.662Z,16.40
2019-02-06T21:02:49.772Z,13.63
2019-02-06T21:05:16.859Z,16.17
2019-02-06T21:07:46.246Z,16.23
2019-02-06T21:10:15.639Z,17.93
2019-02-06T21:12:42.741Z,18.73
2019-02-06T21:15:09.878Z,19.67
2019-02-06T21:17:36.945Z,15.90
2019-02-06T21:20:05.911Z,15.63
2019-02-06T21:22:34.615Z,16.20
2019-02-06T21:25:01.678Z,16.30
2019-02-06T21:27:28.727Z,16.67
2019-02-06T21:29:56.358Z,16.17
2019-02-06T21:32:33.460Z,17.17
2019-02-06T21:35:00.604Z,16.97
2019-02-06T21:37:27.804Z,20.43
2019-02-06T21:39:54.897Z,16.53
2019-02-06T21:43:04.474Z,17.10
2019-02-06T21:45:31.605Z,22.33
2019-02-06T21:47:58.691Z,21.73
2019-02-06T21:50:26.012Z,16.40
2019-02-06T21:53:31.018Z,23.73
2019-02-06T21:55:58.150Z,20.13
2019-02-06T21:58:25.231Z,19.03
2019-02-06T22:00:52.512Z,20.40
2019-02-06T22:03:19.634Z,22.50
2019-02-06T22:05:46.758Z,21.67
2019-02-06T22:08:13.829Z,22.93
2019-02-06T22:10:40.991Z,25.33
2019-02-06T22:13:08.045Z,24.93
2019-02-06T22:15:35.115Z,25.60
2019-02-06T22:18:02.552Z,27.03
2019-02-06T22:20:29.602Z,27.07
2019-02-06T22:22:56.695Z,26.37
2019-02-06T22:25:24.017Z,27.20
2019-02-06T22:27:51.107Z,28.33
2019-02-06T22:30:27.883Z,25.87
2019-02-06T22:32:54.983Z,27.30
2019-02-06T22:35:22.610Z,22.03
2019-02-06T22:37:49.889Z,32.07
2019-02-06T22:40:18.613Z,29.57
2019-02-06T22:42:53.137Z,29.60
2019-02-06T22:45:26.708Z,28.07
2019-02-06T22:47:54.134Z,30.73
2019-02-06T22:50:23.162Z,28.87
2019-02-06T22:52:50.242Z,29.90
2019-02-06T22:55:17.423Z,31.43
2019-02-06T22:57:44.539Z,35.63
2019-02-06T23:00:45.632Z,35.90
2019-02-06T23:03:13.440Z,33.70
2019-02-06T23:05:40.520Z,35.47
2019-02-06T23:08:07.688Z,38.60
2019-02-06T23:10:36.902Z,36.13
2019-02-06T23:13:04.338Z,42.03
2019-02-06T23:15:31.713Z,41.57
2019-02-06T23:17:58.829Z,36.80
2019-02-06T23:20:25.934Z,38.87
2019-02-06T23:26:01.259Z,41.10
2019-02-06T23:28:28.317Z,39.23
2019-02-06T23:30:55.386Z,42.07
2019-02-06T23:33:22.489Z,53.60
2019-02-06T23:35:49.804Z,49.70
2019-02-06T23:38:16.842Z,46.93
2019-02-06T23:40:44.130Z,42.90
2019-02-06T23:43:11.191Z,50.80
2019-02-06T23:45:38.350Z,50.23
2019-02-06T23:48:05.446Z,48.63
2019-02-06T23:50:32.525Z,49.57
2019-02-06T23:52:59.571Z,48.93
2019-02-06T23:55:26.656Z,52.47
2019-02-06T23:57:53.719Z,51.50
